This is the latest recevied weather packets stored in our database for station/object IV3ONZ. If no packets are shown the sender has not sent any weather packets the latest 10 day(s).
| Time | Temp. | Humidity | Pressure | Rain* | Wind** | Luminosity | Snow |
|---|---|---|---|---|---|---|---|
| 1777675803 | 10.56° C | 65% | 1029.3 hPa | 0 mm | - | 0 W/m² | - |
| 1777674006 | 11.67° C | 70% | 1029.2 hPa | 0 mm | - | 0 W/m² | - |
| 1777671304 | 12.22° C | 68% | 1029.1 hPa | 0 mm | - | 0 W/m² | - |
| 1777671004 | 12.22° C | 68% | 1028.9 hPa | 0 mm | - | 0 W/m² | - |
| 1777670704 | 12.78° C | 67% | 1029.1 hPa | 0 mm | - | 0 W/m² | - |
| 1777670403 | 12.78° C | 67% | 1029.1 hPa | 0 mm | - | 0 W/m² | - |
| 1777669804 | 12.78° C | 68% | 1029 hPa | 0 mm | - | 0 W/m² | - |
| 1777669204 | 12.78° C | 69% | 1029.1 hPa | 0 mm | - | 0 W/m² | - |
| 1777666804 | 13.89° C | 72% | 1028.6 hPa | 0 mm | - | 0 W/m² | - |
| 1777661704 | 16.11° C | 43% | 1027.6 hPa | 0 mm | - | 0 W/m² | - |
| 1777660804 | 16.67° C | 42% | 1027.2 hPa | 0 mm | - | 0 W/m² | - |
| 1777659137 | 18.33° C | 35% | 1027.1 hPa | 0 mm | - | 4 W/m² | - |
| 1777657804 | 20° C | 33% | 1026.9 hPa | 0 mm | - | 19 W/m² | - |
| 1777653904 | 21.67° C | 29% | 1026.6 hPa | 0 mm | - | 121 W/m² | - |
| 1777652705 | 21.67° C | 28% | 1026.7 hPa | 0 mm | - | 134 W/m² | - |
| 1777644904 | 21.11° C | 29% | 1027.3 hPa | 0 mm | - | 284 W/m² | - |
| 1777642204 | 21.11° C | 28% | 1027.8 hPa | 0 mm | - | 650 W/m² | - |
| 1777641734 | 20.56° C | 28% | 1027.7 hPa | 0 mm | - | 729 W/m² | - |
| 1777640105 | 20° C | 30% | 1028.1 hPa | 0 mm | - | 796 W/m² | - |
| 1777639937 | 20.56° C | 28% | 1028.3 hPa | 0 mm | - | 803 W/m² | - |
| 1777638904 | 20.56° C | 29% | 1028.4 hPa | 0 mm | - | 834 W/m² | - |
| 1777636504 | 20.56° C | 27% | 1028.5 hPa | 0 mm | - | 891 W/m² | - |
| 1777635303 | 20° C | 30% | 1028.9 hPa | 0 mm | - | 903 W/m² | - |
| 1777634403 | 20° C | 29% | 1029 hPa | 0 mm | - | 910 W/m² | - |
| 1777632003 | 20° C | 28% | 1029.6 hPa | 0 mm | - | 910 W/m² | - |
* Rain latest hour (hover to see other rain measurements)
** Current wind speed in m/s (hover to see current wind gust speed)